createdAt,value
2022-08-10T00:01:53.143Z,7.65
2022-08-10T00:04:24.263Z,5.97
2022-08-10T00:06:52.652Z,6.82
2022-08-10T00:09:21.912Z,3.92
2022-08-10T00:11:48.769Z,5.50
2022-08-10T00:14:15.363Z,8.85
2022-08-10T00:16:41.885Z,5.70
2022-08-10T00:19:08.333Z,7.78
2022-08-10T00:21:36.700Z,5.10
2022-08-10T00:24:03.874Z,5.75
2022-08-10T00:27:52.172Z,4.20
2022-08-10T00:29:17.114Z,7.07
2022-08-10T00:31:58.058Z,4.72
2022-08-10T00:34:25.515Z,7.10
2022-08-10T00:36:52.028Z,7.15
2022-08-10T00:39:18.587Z,6.72
2022-08-10T00:41:45.677Z,6.78
2022-08-10T00:44:28.073Z,6.90
2022-08-10T00:46:54.823Z,5.97
2022-08-10T00:49:21.424Z,7.53
2022-08-10T00:51:48.564Z,5.20
2022-08-10T00:54:24.588Z,5.30
2022-08-10T00:57:16.364Z,6.10
2022-08-10T00:59:58.874Z,5.47
2022-08-10T01:02:25.365Z,8.52
2022-08-10T01:05:00.243Z,5.38
2022-08-10T01:07:42.795Z,6.45
2022-08-10T01:10:24.449Z,7.22
2022-08-10T01:12:56.614Z,8.23
2022-08-10T01:15:43.410Z,10.38
2022-08-10T01:18:18.215Z,9.40
2022-08-10T01:20:57.517Z,8.20
2022-08-10T01:23:27.415Z,7.07
2022-08-10T01:26:12.391Z,11.57
2022-08-10T01:29:20.559Z,6.45
2022-08-10T01:31:51.316Z,8.43
2022-08-10T01:34:24.718Z,7.63
2022-08-10T01:37:03.361Z,8.40
2022-08-10T01:39:40.259Z,5.72
2022-08-10T01:42:14.484Z,7.50
2022-08-10T01:44:48.070Z,9.32
2022-08-10T01:47:36.775Z,7.68
2022-08-10T01:50:09.892Z,6.38
2022-08-10T01:52:44.577Z,7.10
2022-08-10T01:55:13.418Z,8.63
2022-08-10T01:57:42.333Z,8.30
2022-08-10T02:00:10.400Z,6.60
2022-08-10T02:02:37.965Z,9.38
2022-08-10T02:05:11.302Z,8.80
2022-08-10T02:07:40.559Z,9.82
2022-08-10T02:10:11.380Z,7.68
2022-08-10T02:12:39.594Z,10.18
2022-08-10T02:15:14.954Z,10.35
2022-08-10T02:23:04.418Z,7.55
2022-08-10T02:25:42.715Z,8.48
2022-08-10T02:28:27.165Z,10.07
2022-08-10T02:31:01.390Z,8.23
2022-08-10T02:33:29.837Z,7.30
2022-08-10T02:36:00.823Z,8.93
2022-08-10T02:38:58.937Z,8.57
2022-08-10T02:45:02.555Z,10.27
2022-08-10T02:45:24.327Z,7.93
2022-08-10T02:47:51.160Z,8.13
2022-08-10T02:50:39.980Z,8.40
2022-08-10T02:53:54.566Z,10.88
2022-08-10T02:56:12.973Z,13.68
2022-08-10T02:58:51.192Z,7.22
2022-08-10T03:01:21.948Z,10.27
2022-08-10T03:04:03.964Z,10.05
2022-08-10T03:06:38.593Z,10.30
2022-08-10T03:09:08.759Z,10.02
2022-08-10T03:12:35.879Z,9.98
2022-08-10T03:14:25.320Z,10.73
2022-08-10T03:16:54.405Z,12.77
2022-08-10T03:20:35.738Z,8.65
2022-08-10T03:22:19.135Z,8.82
2022-08-10T03:24:46.132Z,11.27
2022-08-10T03:27:17.051Z,12.57
2022-08-10T03:30:28.296Z,10.88
2022-08-10T03:32:31.042Z,12.05
2022-08-10T03:34:59.767Z,8.68
2022-08-10T03:37:27.537Z,11.13
2022-08-10T03:40:00.215Z,12.50
2022-08-10T03:42:31.253Z,15.35
2022-08-10T03:44:59.118Z,10.15
2022-08-10T03:47:29.351Z,9.52
2022-08-10T03:49:58.068Z,8.40
2022-08-10T03:52:30.755Z,8.73
2022-08-10T03:54:58.815Z,12.93
2022-08-10T03:57:30.645Z,9.38
2022-08-10T04:00:01.336Z,12.77
2022-08-10T04:02:42.034Z,14.18
2022-08-10T04:05:19.386Z,9.73
2022-08-10T04:07:46.218Z,9.98
2022-08-10T04:10:14.199Z,10.75
2022-08-10T04:12:40.698Z,15.48
2022-08-10T04:15:10.548Z,10.07
2022-08-10T04:18:02.968Z,8.00
2022-08-10T04:20:26.389Z,8.80
2022-08-10T04:23:06.550Z,10.30
2022-08-10T04:25:36.472Z,12.10
2022-08-10T04:28:03.653Z,8.07
2022-08-10T04:30:32.177Z,11.18
2022-08-10T04:33:06.336Z,13.88
2022-08-10T04:35:33.828Z,13.13
2022-08-10T04:38:02.066Z,11.93
2022-08-10T04:40:30.937Z,10.93
2022-08-10T04:43:10.385Z,10.70
2022-08-10T04:45:48.971Z,10.75
2022-08-10T04:48:42.743Z,12.30
2022-08-10T04:51:05.008Z,14.00
2022-08-10T04:53:34.028Z,11.38
2022-08-10T04:56:20.507Z,10.52
2022-08-10T04:58:57.845Z,9.02
2022-08-10T05:01:25.001Z,11.32
2022-08-10T05:04:38.412Z,10.73
2022-08-10T05:06:38.134Z,8.98
2022-08-10T05:09:04.672Z,12.88
2022-08-10T05:11:31.170Z,17.10
2022-08-10T05:13:57.673Z,10.68
2022-08-10T05:16:32.340Z,10.18
2022-08-10T05:18:59.468Z,10.75
2022-08-10T05:22:03.160Z,21.05
2022-08-10T05:24:12.500Z,11.50
2022-08-10T05:26:55.128Z,11.07
2022-08-10T05:29:25.555Z,10.40
2022-08-10T05:31:52.452Z,12.55
2022-08-10T05:34:20.763Z,12.57
2022-08-10T05:36:48.328Z,12.15
2022-08-10T05:39:19.105Z,12.05
2022-08-10T05:41:57.881Z,11.18
2022-08-10T05:44:31.455Z,15.48
2022-08-10T05:47:00.925Z,15.15
2022-08-10T05:49:27.497Z,11.38
2022-08-10T05:51:54.127Z,14.20
2022-08-10T05:54:20.681Z,12.55
2022-08-10T05:56:54.727Z,12.45
2022-08-10T06:00:35.541Z,16.80
2022-08-10T06:02:36.832Z,14.02
2022-08-10T06:05:24.142Z,10.85
2022-08-10T06:07:56.663Z,10.27
2022-08-10T06:10:31.569Z,10.35
2022-08-10T06:13:30.194Z,17.63
2022-08-10T06:16:04.527Z,15.07
2022-08-10T06:18:31.187Z,15.35
2022-08-10T06:20:58.040Z,11.95
2022-08-10T06:23:28.366Z,13.23
2022-08-10T06:26:09.708Z,11.75
2022-08-10T06:28:54.020Z,13.20
2022-08-10T06:31:35.638Z,10.45
2022-08-10T06:34:24.297Z,10.68
2022-08-10T06:36:53.165Z,13.30
2022-08-10T06:39:33.480Z,12.05
2022-08-10T06:42:32.597Z,12.57
2022-08-10T06:45:09.857Z,8.93
2022-08-10T06:47:43.456Z,11.60
2022-08-10T06:50:44.904Z,12.07
2022-08-10T06:53:19.283Z,10.05
2022-08-10T06:55:56.362Z,10.13
2022-08-10T06:58:26.889Z,10.23
2022-08-10T07:00:55.505Z,11.30
2022-08-10T07:03:28.058Z,13.20
2022-08-10T07:05:57.662Z,12.63
2022-08-10T07:08:26.862Z,13.50
2022-08-10T07:10:54.490Z,9.00
2022-08-10T07:14:17.080Z,10.60
2022-08-10T07:16:11.478Z,11.00
2022-08-10T07:18:42.793Z,12.90
2022-08-10T07:21:10.680Z,10.55
2022-08-10T07:23:58.155Z,8.38
2022-08-10T07:26:28.819Z,11.00
2022-08-10T07:28:55.910Z,9.10
2022-08-10T07:31:54.377Z,12.07
2022-08-10T07:34:21.682Z,9.77
2022-08-10T07:36:58.807Z,12.57
2022-08-10T07:40:04.049Z,12.20
2022-08-10T07:42:21.356Z,11.00
2022-08-10T07:44:48.501Z,9.85
2022-08-10T07:47:18.976Z,8.10
2022-08-10T07:50:08.585Z,9.50
2022-08-10T07:52:37.952Z,7.82
2022-08-10T07:55:10.239Z,11.50
2022-08-10T07:57:44.495Z,9.93
2022-08-10T08:00:12.304Z,12.10
2022-08-10T08:02:46.183Z,9.18
2022-08-10T08:05:38.566Z,11.20
2022-08-10T08:08:03.328Z,10.77
2022-08-10T08:10:34.248Z,9.45
2022-08-10T08:13:08.439Z,10.35
2022-08-10T08:16:20.202Z,13.75
2022-08-10T08:18:25.243Z,11.27
2022-08-10T08:20:54.353Z,10.70
2022-08-10T08:24:30.801Z,11.18
2022-08-10T08:26:17.249Z,8.88
2022-08-10T08:28:45.783Z,14.30
2022-08-10T08:31:17.792Z,17.20
2022-08-10T08:33:45.546Z,10.32
2022-08-10T08:36:16.253Z,10.63
2022-08-10T08:38:43.348Z,10.70
2022-08-10T08:41:53.490Z,10.18
2022-08-10T08:45:07.527Z,8.10
2022-08-10T08:48:04.644Z,9.70
2022-08-10T08:50:50.939Z,13.00
2022-08-10T08:54:03.054Z,8.73
2022-08-10T08:57:00.932Z,7.82
2022-08-10T08:59:54.869Z,10.38
2022-08-10T09:02:31.197Z,9.55
2022-08-10T09:05:58.407Z,6.20
2022-08-10T09:08:49.060Z,14.10
2022-08-10T09:12:03.106Z,11.13
2022-08-10T09:14:49.214Z,9.90
2022-08-10T09:17:40.735Z,6.47
2022-08-10T09:20:29.781Z,15.57
2022-08-10T09:23:03.490Z,8.02
2022-08-10T09:25:36.545Z,8.50
2022-08-10T09:28:05.875Z,9.82
2022-08-10T09:30:52.430Z,7.82
2022-08-10T09:36:20.495Z,9.60
2022-08-10T09:36:47.782Z,5.95
2022-08-10T09:40:12.495Z,8.27
2022-08-10T09:42:32.430Z,9.70
2022-08-10T09:45:46.275Z,9.93
2022-08-10T09:48:45.578Z,10.77
2022-08-10T09:51:53.697Z,7.78
2022-08-10T09:54:35.402Z,16.15
2022-08-10T10:00:12.656Z,7.47
2022-08-10T10:03:02.908Z,10.35
2022-08-10T10:05:51.834Z,8.80
2022-08-10T10:08:21.993Z,7.35
2022-08-10T10:11:03.827Z,10.27
2022-08-10T10:14:01.870Z,10.15
2022-08-10T10:16:52.355Z,7.70
2022-08-10T10:19:43.604Z,5.72
2022-08-10T10:22:38.244Z,7.15
2022-08-10T10:25:19.810Z,6.80
2022-08-10T10:27:53.819Z,7.97
2022-08-10T10:30:24.809Z,12.02
2022-08-10T10:33:10.582Z,6.75
2022-08-10T10:35:57.002Z,9.75
2022-08-10T10:38:32.473Z,9.43
2022-08-10T10:41:55.677Z,9.13
2022-08-10T10:44:42.416Z,8.48
2022-08-10T10:47:30.831Z,9.25
2022-08-10T10:50:15.591Z,9.68
2022-08-10T10:53:19.025Z,9.00
2022-08-10T10:56:15.447Z,7.80
2022-08-10T10:58:49.451Z,7.07
2022-08-10T11:01:21.925Z,9.20
2022-08-10T11:04:01.227Z,8.10
2022-08-10T11:06:52.077Z,9.27
2022-08-10T11:10:04.505Z,6.93
2022-08-10T11:12:37.769Z,12.32
2022-08-10T11:15:24.225Z,7.57
2022-08-10T11:17:57.818Z,7.47
2022-08-10T11:20:33.180Z,6.28
2022-08-10T11:23:24.647Z,6.00
2022-08-10T11:26:09.199Z,8.43
2022-08-10T11:29:02.905Z,7.65
2022-08-10T11:31:46.512Z,6.32
2022-08-10T11:34:47.383Z,4.95
2022-08-10T11:37:27.112Z,5.73
2022-08-10T11:40:01.605Z,6.13
2022-08-10T11:42:41.890Z,8.95
2022-08-10T11:45:24.237Z,8.98
2022-08-10T11:47:53.596Z,6.38
2022-08-10T11:50:23.115Z,6.13
2022-08-10T11:52:49.633Z,7.18
2022-08-10T11:55:22.306Z,6.43
2022-08-10T11:57:54.031Z,4.63
2022-08-10T12:00:24.063Z,5.07
2022-08-10T12:02:55.389Z,6.47
2022-08-10T12:05:54.407Z,7.25
2022-08-10T12:10:05.465Z,5.50
2022-08-10T12:11:08.929Z,7.18
2022-08-10T12:13:58.694Z,5.45
2022-08-10T12:16:38.394Z,4.55
2022-08-10T12:19:18.510Z,5.28
2022-08-10T12:21:50.522Z,8.02
2022-08-10T12:24:25.956Z,8.18
2022-08-10T12:27:07.589Z,6.65
2022-08-10T12:29:42.908Z,5.35
2022-08-10T12:32:17.950Z,7.50
2022-08-10T12:35:17.210Z,7.07
2022-08-10T12:38:22.551Z,8.75
2022-08-10T12:40:55.904Z,5.65
2022-08-10T12:44:07.586Z,4.25
2022-08-10T12:46:31.291Z,3.85
2022-08-10T12:49:11.753Z,4.63
2022-08-10T12:51:53.345Z,3.33
2022-08-10T12:54:31.833Z,7.10
2022-08-10T12:57:03.053Z,2.85
2022-08-10T12:59:31.564Z,8.80
2022-08-10T13:02:06.809Z,6.22
2022-08-10T13:04:40.344Z,3.88
2022-08-10T13:07:08.719Z,3.67
2022-08-10T13:09:54.026Z,4.30
2022-08-10T13:12:34.957Z,4.38
2022-08-10T13:15:45.867Z,3.03
2022-08-10T13:18:06.882Z,3.08
2022-08-10T13:20:51.540Z,6.22
2022-08-10T13:23:24.453Z,4.82
2022-08-10T13:25:52.222Z,5.20
2022-08-10T13:28:37.101Z,4.47
2022-08-10T13:31:16.998Z,3.70
2022-08-10T13:34:41.144Z,5.72
2022-08-10T13:36:46.329Z,6.03
2022-08-10T13:39:14.475Z,4.82
2022-08-10T13:41:44.118Z,4.57
2022-08-10T13:44:15.457Z,4.00
2022-08-10T13:46:50.110Z,4.32
2022-08-10T13:49:19.008Z,4.88
2022-08-10T13:51:57.676Z,5.82
2022-08-10T13:54:36.016Z,5.05
2022-08-10T13:57:04.636Z,3.90
2022-08-10T14:00:33.998Z,4.75
2022-08-10T14:02:31.176Z,5.32
2022-08-10T14:04:59.326Z,5.78
2022-08-10T14:07:27.547Z,5.80
2022-08-10T14:10:04.839Z,4.47
2022-08-10T14:12:33.677Z,2.88
2022-08-10T14:15:03.124Z,4.10
2022-08-10T14:17:30.550Z,5.43
2022-08-10T14:20:03.370Z,2.88
2022-08-10T14:22:34.368Z,4.00
2022-08-10T14:25:09.108Z,4.03
2022-08-10T14:28:01.669Z,5.68
2022-08-10T14:30:30.959Z,8.52
2022-08-10T14:33:00.342Z,4.65
2022-08-10T14:36:18.408Z,5.78
2022-08-10T14:38:19.545Z,3.25
2022-08-10T14:40:52.340Z,3.40
2022-08-10T14:43:28.444Z,2.75
2022-08-10T14:46:05.612Z,4.63
2022-08-10T14:48:40.671Z,3.92
2022-08-10T14:51:08.349Z,3.70
2022-08-10T14:53:37.039Z,8.52
2022-08-10T14:56:08.643Z,3.78
2022-08-10T14:58:39.440Z,2.80
2022-08-10T15:01:26.180Z,3.72
2022-08-10T15:04:17.024Z,3.40
2022-08-10T15:06:55.771Z,7.53
2022-08-10T15:09:28.048Z,4.78
2022-08-10T15:12:15.110Z,3.80
2022-08-10T15:14:48.178Z,3.67
2022-08-10T15:17:37.149Z,4.93
2022-08-10T15:20:14.856Z,5.78
2022-08-10T15:23:30.082Z,8.02
2022-08-10T15:25:59.950Z,7.20
2022-08-10T15:29:24.279Z,3.20
2022-08-10T15:31:22.176Z,3.90
2022-08-10T15:34:10.005Z,3.88
2022-08-10T15:37:02.519Z,3.33
2022-08-10T15:40:25.482Z,4.32
2022-08-10T15:42:52.027Z,5.25
2022-08-10T15:45:18.892Z,5.03
2022-08-10T15:48:03.526Z,2.90
2022-08-10T15:53:49.477Z,6.38
2022-08-10T15:56:28.219Z,4.82
2022-08-10T15:59:09.552Z,5.57
2022-08-10T16:02:04.336Z,3.63
2022-08-10T16:04:35.332Z,4.18
2022-08-10T16:07:08.051Z,8.82
2022-08-10T16:10:25.152Z,6.28
2022-08-10T16:12:59.091Z,7.40
2022-08-10T16:15:29.095Z,6.25
2022-08-10T16:18:09.379Z,4.28
2022-08-10T16:20:52.499Z,4.13
2022-08-10T16:23:30.961Z,3.85
2022-08-10T16:26:15.149Z,6.43
2022-08-10T16:28:52.297Z,7.13
2022-08-10T16:31:22.127Z,4.45
2022-08-10T16:33:52.946Z,5.45
2022-08-10T16:36:22.559Z,7.30
2022-08-10T16:38:51.378Z,3.38
2022-08-10T16:42:00.773Z,4.35
2022-08-10T16:44:10.134Z,2.78
2022-08-10T16:46:42.272Z,7.68
2022-08-10T16:49:09.935Z,4.25
2022-08-10T16:51:38.629Z,4.80
2022-08-10T16:54:07.038Z,5.72
2022-08-10T16:56:48.663Z,4.82
2022-08-10T17:02:05.601Z,9.95
2022-08-10T17:04:33.908Z,4.78
2022-08-10T17:07:07.266Z,3.00
2022-08-10T17:09:36.312Z,2.80
2022-08-10T17:12:11.300Z,5.75
2022-08-10T17:14:42.496Z,5.95
2022-08-10T17:17:24.541Z,7.15
2022-08-10T17:19:56.837Z,5.78
2022-08-10T17:22:44.419Z,3.03
2022-08-10T17:25:21.988Z,4.20
2022-08-10T17:28:21.129Z,6.57
2022-08-10T17:30:57.474Z,5.72
2022-08-10T17:33:29.404Z,4.97
2022-08-10T17:36:02.178Z,4.35
2022-08-10T17:38:31.454Z,4.65
2022-08-10T17:41:06.192Z,8.38
2022-08-10T17:43:58.223Z,5.05
2022-08-10T17:46:26.327Z,3.40
2022-08-10T17:48:55.492Z,5.28
2022-08-10T17:51:27.425Z,5.30
2022-08-10T17:53:59.554Z,4.40
2022-08-10T17:56:31.302Z,6.65
2022-08-10T17:59:01.195Z,4.00
2022-08-10T18:01:38.267Z,7.20
2022-08-10T18:04:14.943Z,8.38
2022-08-10T18:06:43.051Z,3.53
2022-08-10T18:09:17.409Z,5.50
2022-08-10T18:11:48.043Z,6.47
2022-08-10T18:14:16.876Z,6.38
2022-08-10T18:16:44.152Z,6.63
2022-08-10T18:19:13.434Z,7.50
2022-08-10T18:21:49.639Z,5.22
2022-08-10T18:24:19.575Z,4.47
2022-08-10T18:26:49.274Z,6.15
2022-08-10T18:29:29.475Z,5.57
2022-08-10T18:32:04.917Z,5.60
2022-08-10T18:34:44.479Z,7.78
2022-08-10T18:37:21.441Z,3.35
2022-08-10T18:39:50.513Z,7.60
2022-08-10T18:42:24.618Z,5.57
2022-08-10T18:45:07.107Z,4.83
2022-08-10T18:47:41.108Z,3.72
2022-08-10T18:50:34.744Z,4.85
2022-08-10T18:53:11.911Z,3.45
2022-08-10T18:56:08.610Z,6.28
2022-08-10T18:58:49.069Z,6.65
2022-08-10T19:01:30.741Z,4.97
2022-08-10T19:04:35.487Z,6.53
2022-08-10T19:07:12.134Z,3.38
2022-08-10T19:09:48.523Z,5.65
2022-08-10T19:12:42.642Z,8.13
2022-08-10T19:15:40.007Z,4.40
2022-08-10T19:18:22.300Z,5.65
2022-08-10T19:20:55.364Z,7.53
2022-08-10T19:23:24.555Z,5.43
2022-08-10T19:26:37.922Z,7.28
2022-08-10T19:29:02.973Z,4.82
2022-08-10T19:31:58.655Z,4.47
2022-08-10T19:34:37.218Z,6.53
2022-08-10T19:37:40.151Z,6.85
2022-08-10T19:40:14.008Z,4.97
2022-08-10T19:42:48.007Z,5.05
2022-08-10T19:45:56.117Z,7.15
2022-08-10T19:48:18.739Z,6.43
2022-08-10T19:51:06.625Z,9.52
2022-08-10T19:53:56.185Z,9.05
2022-08-10T19:56:44.418Z,5.32
2022-08-10T20:00:16.509Z,5.88
2022-08-10T20:02:24.598Z,14.70
2022-08-10T20:05:36.895Z,5.60
2022-08-10T20:08:35.629Z,7.13
2022-08-10T20:11:10.752Z,9.15
2022-08-10T20:14:22.220Z,4.80
2022-08-10T20:16:51.480Z,6.22
2022-08-10T20:19:20.863Z,5.57
2022-08-10T20:21:56.503Z,7.90
2022-08-10T20:24:29.053Z,7.80
2022-08-10T20:27:56.818Z,5.45
2022-08-10T20:30:04.722Z,7.18
2022-08-10T20:32:40.699Z,8.15
2022-08-10T20:35:24.360Z,3.75
2022-08-10T20:38:04.168Z,8.23
2022-08-10T20:40:49.420Z,7.28
2022-08-10T20:43:34.048Z,7.50
2022-08-10T20:46:11.184Z,3.93
2022-08-10T20:48:46.437Z,5.43
2022-08-10T20:51:21.816Z,6.80
2022-08-10T20:53:56.256Z,6.15
2022-08-10T20:56:48.751Z,7.47
2022-08-10T20:59:23.948Z,4.30
2022-08-10T21:02:20.841Z,11.80
2022-08-10T21:04:58.545Z,10.30
2022-08-10T21:07:59.876Z,5.70
2022-08-10T21:10:56.203Z,5.38
2022-08-10T21:14:07.266Z,6.55
2022-08-10T21:16:47.266Z,4.60
2022-08-10T21:19:14.114Z,6.10
2022-08-10T21:21:56.814Z,4.65
2022-08-10T21:24:40.852Z,11.98
2022-08-10T21:27:28.817Z,5.20
2022-08-10T21:30:09.971Z,4.85
2022-08-10T21:32:51.463Z,9.35
2022-08-10T21:35:37.168Z,6.63
2022-08-10T21:38:16.704Z,5.45
2022-08-10T21:41:17.520Z,5.97
2022-08-10T21:44:35.277Z,5.47
2022-08-10T21:47:43.444Z,9.07
2022-08-10T21:53:57.055Z,7.43
2022-08-10T21:57:03.040Z,2.60
2022-08-10T22:00:31.622Z,7.68
2022-08-10T22:03:19.008Z,7.28
2022-08-10T22:06:10.727Z,8.65
2022-08-10T22:09:02.572Z,6.20
2022-08-10T22:11:52.511Z,12.68
2022-08-10T22:14:47.691Z,3.60
2022-08-10T22:18:03.363Z,4.95
2022-08-10T22:20:49.868Z,10.35
2022-08-10T22:23:47.986Z,6.45
2022-08-10T22:26:40.237Z,5.85
2022-08-10T22:29:42.564Z,7.60
2022-08-10T22:32:43.510Z,8.68
2022-08-10T22:36:04.309Z,8.65
2022-08-10T22:39:12.580Z,7.40
2022-08-10T22:42:15.351Z,8.10
2022-08-10T22:45:03.184Z,6.63
2022-08-10T22:47:51.533Z,6.68
2022-08-10T22:50:24.721Z,6.65
2022-08-10T22:53:04.683Z,6.97
2022-08-10T22:55:56.020Z,8.90
2022-08-10T22:58:41.165Z,6.85
2022-08-10T23:01:36.404Z,5.72
2022-08-10T23:04:11.387Z,3.20
2022-08-10T23:06:40.370Z,6.32
2022-08-10T23:09:09.885Z,6.35
2022-08-10T23:11:40.387Z,6.55
2022-08-10T23:14:11.060Z,6.80
2022-08-10T23:17:01.949Z,4.78
2022-08-10T23:19:37.875Z,4.85
2022-08-10T23:22:10.329Z,7.32
2022-08-10T23:24:53.626Z,7.25
2022-08-10T23:27:37.432Z,5.72
2022-08-10T23:30:12.802Z,12.68
2022-08-10T23:32:48.682Z,4.78
2022-08-10T23:36:31.132Z,5.82
2022-08-10T23:38:10.681Z,5.40
2022-08-10T23:40:38.098Z,4.75
2022-08-10T23:43:05.438Z,5.15
2022-08-10T23:45:53.064Z,5.55
2022-08-10T23:48:23.159Z,4.35
2022-08-10T23:50:58.631Z,4.05
2022-08-10T23:53:33.005Z,7.47
2022-08-10T23:56:02.174Z,9.93
2022-08-10T23:58:39.842Z,11.02
